Terminal Aerodrome Forecast
Issued by NWS

Home | Current Version | Previous Version | Text Only | Print | Product List | Glossary On
Versions: 1 2 3 4 5 6 7 8 9 10 11 12 13 14 15 16 17
000
FTUS44 KLZK 181700
TAFPBF
TAF
KPBF 181740Z 1818/1918 11009KT P6SM BKN025 OVC050
      TEMPO 1818/1822 5SM SHRA BR OVC015
     FM182200 10006KT P6SM SCT015 BKN035
      TEMPO 1822/1902 3SM SHRA BR OVC015
     FM190200 05003KT 5SM BR VCSH OVC025
     FM191200 27004KT P6SM BKN040 PROB30 1915/1918 4SM SHRA BR
      OVC025=

USA.gov is the U.S. government's official web portal to all federal, state and local government web resources and services.